Portada
METAR-TAF:

METAR-TAF

Aeroports :

Culiacán, Mèxic

latitud: 24-49N, longitud: 107-24W, altitud: 39 m

Observació

L'informe es va fer fa 37 minuts, a les 23:40 UTC
Vent 8 kt del Oest/Sud-Oest amb ràfegues de 18 kt
Temperatura 34°C
Humitat 20%
Pressió 1006 hPa
Visibilitat: 16.1 km
Cel clar

METAR: MMCL 172340Z 25008G18KT 10SM SKC 34/08 A2972 RMK SLP061 57007 958 HZY

Hora: 18:17 (00:17 UTC)

Pronòstic

L'informe es va fer fa 7 hores i 26 minuts, a les 16:51 UTC
Pronòstic vàlid del 17 a les 18 UTC al 18 a les 18 UTC
Vent 15 kt del Oest/Sud-Oest
Visibilitat: 10 km
Cel clar
A partir de les 18 a les 0300 UTC
Vent 5 kt del Oest/Sud-Oest
Visibilitat: 10 km
Cel clar
Evolucionant progressivament
l' 18 a les 06 UTC al 18 a les 07 UTC
Vent kt del Nord
A partir de les 18 a les 1200 UTC
Vent kt del Nord
Visibilitat: 10 km
Núvols disperses a una alçada de 3000 ft

TAF: MMCL 171651Z 1718/1818 24015KT P6SM SKC FM180300 24005KT P6SM SKC BECMG 1806/1807 00000KT FM181200 00000KT P6SM SCT030

Observacions i pronòstics meteorològics de més de 4000 aeroports (METAR i TAF).

Les estacions disponibles són els punts grocs i vermells al mapa.

Posi el ratolí al punt desitjat per veure el nom de l'estació.

Feu clic per veure les observacions i els pronòstics meteorològics.

Per canviar el mapa: feu clic els botons verds amb una creu de color negre per apropar; al botó verd amb un guió per allunyar la imatge; o en les fletxes verdes per a mapes adjacents.


METAR-TAF: